Time;durP1;ratioP1;P1;durP2;ratioP2;P2;SDS_P1;SDS_P2;PMS_P1;PMS_P2;Temp;Humidity;BMP_temperature;BMP_pressure;BME280_temperature;BME280_humidity;BME280_pressure;Samples;Min_cycle;Max_cycle;Signal;HPM_P1;HPM_P2
2022/06/29 00:00:49;;;;;;;953.67;863.10;;;20.30;99.90;;;;;;5007590;28;20602;-71
2022/06/29 00:03:15;;;;;;;958.70;867.90;;;20.20;99.90;;;;;;5008934;28;20199;-72
2022/06/29 00:05:40;;;;;;;960.13;869.33;;;20.20;99.90;;;;;;5008893;28;20250;-72
2022/06/29 00:08:06;;;;;;;960.10;869.40;;;20.10;99.90;;;;;;5009945;28;20674;-71
2022/06/29 00:10:33;;;;;;;943.83;853.30;;;20.10;99.90;;;;;;5008559;28;20296;-70
2022/06/29 00:12:58;;;;;;;966.23;874.97;;;20.00;99.90;;;;;;5006155;28;20191;-70
2022/06/29 00:15:24;;;;;;;965.23;874.03;;;20.00;99.90;;;;;;5009670;28;20191;-67
2022/06/29 00:17:50;;;;;;;953.40;862.70;;;20.00;99.90;;;;;;5009457;28;20180;-70
2022/06/29 00:20:16;;;;;;;971.13;879.80;;;19.90;99.90;;;;;;5008034;28;20294;-72
2022/06/29 00:22:43;;;;;;;952.73;861.83;;;19.90;99.90;;;;;;5012065;28;20196;-71
2022/06/29 00:25:10;;;;;;;965.60;874.63;;;19.80;99.90;;;;;;5007441;28;20208;-71
2022/06/29 00:27:36;;;;;;;966.83;875.87;;;19.70;99.90;;;;;;5008380;28;20262;-67
2022/06/29 00:30:02;;;;;;;941.70;851.13;;;19.80;99.90;;;;;;5011234;28;20219;-70
2022/06/29 00:32:28;;;;;;;953.73;863.00;;;20.00;99.90;;;;;;5008713;28;20198;-72
2022/06/29 00:34:53;;;;;;;937.13;846.53;;;20.00;99.90;;;;;;5007132;28;20201;-70
2022/06/29 00:37:19;;;;;;;934.77;844.67;;;19.90;99.90;;;;;;5007616;28;20185;-68
2022/06/29 00:39:44;;;;;;;940.17;849.47;;;19.90;99.90;;;;;;5010487;28;20278;-68
2022/06/29 00:42:10;;;;;;;962.23;870.87;;;19.80;99.90;;;;;;5008644;28;20182;-68
2022/06/29 00:44:35;;;;;;;948.60;857.77;;;19.70;99.90;;;;;;5009792;28;20206;-68
2022/06/29 00:47:04;;;;;;;924.87;834.93;;;19.50;99.90;;;;;;5010163;28;20228;-67
2022/06/29 00:49:30;;;;;;;935.67;845.13;;;19.50;99.90;;;;;;5007296;28;20212;-71
2022/06/29 00:52:02;;;;;;;907.63;817.97;;;19.60;99.90;;;;;;5007810;28;20210;-70
2022/06/29 00:54:36;;;;;;;927.27;837.33;;;19.70;99.90;;;;;;5006616;28;20207;-69
2022/06/29 00:57:06;;;;;;;948.07;857.10;;;19.60;99.90;;;;;;5007537;28;20180;-70
2022/06/29 00:59:39;;;;;;;929.77;839.37;;;19.60;99.90;;;;;;5006325;28;20250;-70
2022/06/29 01:02:05;;;;;;;950.23;859.20;;;19.60;99.90;;;;;;5005939;28;20187;-71
2022/06/29 01:04:31;;;;;;;947.17;856.37;;;19.60;99.90;;;;;;5018000;28;20245;-70
2022/06/29 01:06:56;;;;;;;930.43;840.20;;;19.50;99.90;;;;;;5015566;28;20179;-69
2022/06/29 01:09:22;;;;;;;950.87;860.27;;;19.50;99.90;;;;;;5014712;28;20215;-70
2022/06/29 01:11:49;;;;;;;915.83;826.13;;;19.50;99.90;;;;;;5016354;28;20669;-70
2022/06/29 01:14:15;;;;;;;928.43;838.20;;;19.50;99.90;;;;;;5015764;28;20231;-69
2022/06/29 01:16:41;;;;;;;907.13;817.63;;;19.30;99.90;;;;;;5016387;28;20189;-68
2022/06/29 01:19:06;;;;;;;924.83;834.50;;;19.30;99.90;;;;;;5015533;28;20237;-70
2022/06/29 01:21:35;;;;;;;916.67;826.30;;;19.20;99.90;;;;;;5018695;28;20187;-70
2022/06/29 01:24:01;;;;;;;958.03;864.67;;;19.20;99.90;;;;;;5023001;28;20201;-70
2022/06/29 01:26:27;;;;;;;929.23;839.40;;;19.10;99.90;;;;;;5016302;28;20257;-70
2022/06/29 01:28:52;;;;;;;933.83;841.50;;;19.10;99.90;;;;;;5015179;28;20203;-67
2022/06/29 01:31:19;;;;;;;904.77;815.37;;;19.20;99.90;;;;;;5015238;28;20306;-67
2022/06/29 01:33:46;;;;;;;914.97;824.93;;;19.10;99.90;;;;;;5017392;28;20199;-66
2022/06/29 01:36:13;;;;;;;917.63;827.87;;;19.00;99.90;;;;;;5016941;28;20512;-68
2022/06/29 01:38:39;;;;;;;893.17;803.80;;;18.90;99.90;;;;;;5015123;28;20188;-69
2022/06/29 01:41:07;;;;;;;911.67;821.97;;;19.00;99.90;;;;;;5014749;28;20206;-68
2022/06/29 01:43:34;;;;;;;904.70;814.47;;;18.90;99.90;;;;;;5015261;28;20198;-72
2022/06/29 01:45:59;;;;;;;894.73;805.03;;;18.90;99.90;;;;;;5012573;28;20203;-71
2022/06/29 01:48:25;;;;;;;917.80;827.63;;;18.90;99.90;;;;;;5018808;28;20560;-71
2022/06/29 01:50:50;;;;;;;905.60;815.50;;;19.00;99.90;;;;;;5012745;28;20218;-71
2022/06/29 01:53:16;;;;;;;926.93;836.40;;;19.00;99.90;;;;;;5015346;28;20618;-72
2022/06/29 01:55:44;;;;;;;878.37;789.13;;;18.90;99.90;;;;;;5013630;28;20223;-68
2022/06/29 01:58:09;;;;;;;900.43;810.63;;;18.90;99.90;;;;;;5016217;28;20194;-71
2022/06/29 02:00:35;;;;;;;886.80;797.77;;;18.80;99.90;;;;;;5013316;28;20224;-70
2022/06/29 02:03:00;;;;;;;896.70;807.13;;;18.70;99.90;;;;;;5016526;28;20227;-71
2022/06/29 02:05:25;;;;;;;902.13;812.30;;;18.70;99.90;;;;;;5013217;28;20283;-70
2022/06/29 02:07:51;;;;;;;901.53;811.70;;;18.70;99.90;;;;;;5015353;28;20661;-70
2022/06/29 02:10:16;;;;;;;883.67;794.37;;;18.70;99.90;;;;;;5016734;28;20241;-71
2022/06/29 02:12:42;;;;;;;898.60;809.07;;;18.60;99.90;;;;;;5015266;28;20245;-70
2022/06/29 02:15:08;;;;;;;872.77;783.67;;;18.50;99.90;;;;;;5015691;28;20190;-70
2022/06/29 02:17:34;;;;;;;901.00;811.17;;;18.60;99.90;;;;;;5015329;28;20345;-70
2022/06/29 02:20:00;;;;;;;890.50;801.07;;;18.60;99.90;;;;;;5013959;28;20301;-66
2022/06/29 02:22:25;;;;;;;896.23;806.37;;;18.60;99.90;;;;;;5017116;28;20282;-68
2022/06/29 02:24:51;;;;;;;917.93;828.07;;;18.60;99.90;;;;;;5023367;28;20247;-70
2022/06/29 02:27:16;;;;;;;916.53;826.70;;;18.60;99.90;;;;;;5012366;28;20183;-70
2022/06/29 02:29:41;;;;;;;905.13;815.07;;;18.50;99.90;;;;;;5004177;28;20659;-64
2022/06/29 02:34:51;;;;;;;911.70;821.43;;;18.60;99.90;;;;;;5003707;28;20253;-66
2022/06/29 02:37:17;;;;;;;887.67;798.17;;;18.60;99.90;;;;;;5005704;28;20180;-64
2022/06/29 02:39:43;;;;;;;896.33;806.70;;;18.50;99.90;;;;;;5005231;28;20297;-66
2022/06/29 02:42:10;;;;;;;889.03;800.10;;;18.30;99.90;;;;;;5005973;28;20190;-66
2022/06/29 02:44:36;;;;;;;894.67;804.93;;;18.50;99.90;;;;;;5008139;28;20229;-64
2022/06/29 02:47:03;;;;;;;904.93;815.20;;;18.60;99.90;;;;;;5007310;28;20671;-69
2022/06/29 02:49:28;;;;;;;883.90;794.90;;;18.50;99.90;;;;;;5005882;28;20206;-68
2022/06/29 02:51:54;;;;;;;882.03;792.33;;;18.60;99.90;;;;;;5005845;28;21034;-76
2022/06/29 02:54:19;;;;;;;935.67;842.47;;;18.60;99.90;;;;;;5021989;28;20198;-88
2022/06/29 02:56:45;;;;;;;904.33;814.63;;;18.60;99.90;;;;;;5017571;28;20185;-81
2022/06/29 02:59:10;;;;;;;931.87;838.97;;;18.50;99.90;;;;;;5017083;28;20195;-67
2022/06/29 03:01:36;;;;;;;904.53;814.77;;;18.40;99.90;;;;;;5005492;28;20199;-68
2022/06/29 03:04:01;;;;;;;891.47;801.93;;;18.50;99.90;;;;;;5008852;28;20201;-63
2022/06/29 03:06:27;;;;;;;881.93;792.80;;;18.50;99.90;;;;;;5018474;28;20672;-64
2022/06/29 03:08:52;;;;;;;890.67;800.60;;;18.50;99.90;;;;;;5008374;28;20198;-64
2022/06/29 03:11:18;;;;;;;876.70;787.53;;;18.60;99.90;;;;;;5005299;28;20594;-64
2022/06/29 03:13:43;;;;;;;909.27;819.17;;;18.60;99.90;;;;;;5007318;28;20273;-66
2022/06/29 03:16:09;;;;;;;878.93;789.73;;;18.60;99.90;;;;;;5009437;28;20195;-64
2022/06/29 03:18:34;;;;;;;898.80;808.87;;;18.50;99.90;;;;;;5008434;28;20214;-64
2022/06/29 03:21:00;;;;;;;915.77;825.40;;;18.60;99.90;;;;;;5007768;28;20662;-64
2022/06/29 03:23:25;;;;;;;904.33;814.17;;;18.60;99.90;;;;;;5006899;28;20837;-63
2022/06/29 03:25:51;;;;;;;887.20;796.97;;;18.50;99.90;;;;;;5008688;28;20207;-63
2022/06/29 03:28:16;;;;;;;884.60;795.30;;;18.60;99.90;;;;;;5024460;28;20200;-63
2022/06/29 03:30:42;;;;;;;914.07;823.70;;;18.60;99.90;;;;;;5020153;28;20585;-71
2022/06/29 03:33:07;;;;;;;904.07;814.10;;;18.60;99.90;;;;;;5019358;28;20242;-66
2022/06/29 03:35:33;;;;;;;881.17;791.40;;;18.60;99.90;;;;;;5011658;28;20199;-63
2022/06/29 03:37:58;;;;;;;911.57;821.07;;;18.60;99.90;;;;;;5022440;28;20210;-63
2022/06/29 03:40:24;;;;;;;869.30;780.57;;;18.70;99.90;;;;;;5025671;28;20228;-64
2022/06/29 03:42:50;;;;;;;909.87;819.53;;;18.70;99.90;;;;;;5028095;28;20722;-62
2022/06/29 03:45:15;;;;;;;926.03;835.17;;;18.70;99.90;;;;;;5026584;28;20199;-63
2022/06/29 03:47:41;;;;;;;889.07;799.53;;;18.80;99.90;;;;;;5028581;28;20205;-63
2022/06/29 03:50:07;;;;;;;881.70;792.43;;;18.80;99.90;;;;;;5026643;28;20218;-64
2022/06/29 03:52:33;;;;;;;886.77;797.20;;;18.60;99.90;;;;;;5011322;28;20206;-63
2022/06/29 03:54:58;;;;;;;912.90;822.60;;;18.70;99.90;;;;;;5026522;28;20239;-64
2022/06/29 03:57:24;;;;;;;925.83;835.20;;;18.80;99.90;;;;;;5011681;28;20199;-64
2022/06/29 03:59:49;;;;;;;869.17;780.33;;;18.80;99.90;;;;;;5011068;28;20195;-63
2022/06/29 04:02:15;;;;;;;929.27;838.50;;;18.80;99.90;;;;;;5008996;28;20183;-64
2022/06/29 04:04:41;;;;;;;932.03;841.07;;;19.00;99.90;;;;;;5009575;28;20293;-62
2022/06/29 04:07:06;;;;;;;913.00;822.57;;;19.10;99.90;;;;;;5007826;28;20314;-64
2022/06/29 04:09:32;;;;;;;944.30;850.80;;;19.00;99.90;;;;;;5008093;28;20250;-63
2022/06/29 04:11:58;;;;;;;914.73;824.27;;;18.90;99.90;;;;;;5008752;28;20547;-63
2022/06/29 04:14:26;;;;;;;943.87;849.93;;;19.00;99.90;;;;;;5007050;28;20307;-63
2022/06/29 04:16:53;;;;;;;914.57;824.00;;;19.10;99.90;;;;;;5009306;28;20203;-63
2022/06/29 04:19:19;;;;;;;898.87;808.57;;;19.30;99.90;;;;;;5007903;28;20184;-63
2022/06/29 04:21:46;;;;;;;901.23;811.13;;;19.40;99.90;;;;;;5009996;28;20200;-64
2022/06/29 04:24:12;;;;;;;931.70;840.80;;;19.40;99.90;;;;;;5007469;28;20580;-64
2022/06/29 04:26:37;;;;;;;949.70;858.47;;;19.40;99.90;;;;;;5007886;28;20215;-64
2022/06/29 04:29:03;;;;;;;922.50;831.30;;;19.40;99.90;;;;;;5008822;28;20742;-68
2022/06/29 04:31:28;;;;;;;918.37;827.77;;;19.40;99.90;;;;;;5007105;28;20212;-67
2022/06/29 04:33:54;;;;;;;953.33;861.87;;;19.60;99.90;;;;;;5009896;28;20645;-62
2022/06/29 04:36:20;;;;;;;945.10;853.20;;;19.70;99.90;;;;;;5017285;28;20195;-62
2022/06/29 04:38:45;;;;;;;923.50;832.77;;;19.80;99.90;;;;;;5018721;28;20669;-61
2022/06/29 04:41:11;;;;;;;940.90;850.20;;;19.70;99.90;;;;;;5012168;28;20203;-63
2022/06/29 04:43:37;;;;;;;955.13;863.77;;;19.70;99.90;;;;;;5009956;28;20203;-63
2022/06/29 04:46:21;;;;;;;966.77;875.10;;;19.90;99.90;;;;;;5008106;28;20247;-64
2022/06/29 04:48:58;;;;;;;951.73;860.33;;;20.00;99.90;;;;;;5007395;28;20210;-63
2022/06/29 04:51:26;;;;;;;957.80;865.80;;;20.00;99.90;;;;;;5005305;28;20307;-63
2022/06/29 04:53:54;;;;;;;929.53;839.03;;;20.10;99.90;;;;;;5009179;28;20192;-64
2022/06/29 04:56:20;;;;;;;992.47;900.00;;;20.10;99.90;;;;;;5012788;28;20696;-63
2022/06/29 04:58:46;;;;;;;940.13;849.17;;;20.00;99.90;;;;;;5027368;28;20189;-63
2022/06/29 05:01:11;;;;;;;990.63;898.03;;;20.00;99.90;;;;;;5006421;28;20287;-64
2022/06/29 05:03:37;;;;;;;988.43;895.93;;;20.10;99.90;;;;;;5013247;28;20488;-64
2022/06/29 05:06:02;;;;;;;976.00;883.90;;;20.20;99.90;;;;;;5006557;28;20714;-65
2022/06/29 05:08:28;;;;;;;979.80;887.77;;;20.30;99.90;;;;;;5021154;28;20199;-64
2022/06/29 05:10:54;;;;;;;970.37;878.47;;;20.40;99.90;;;;;;5013816;28;20222;-64
2022/06/29 05:13:19;;;;;;;951.00;859.83;;;20.40;99.90;;;;;;5027082;28;20184;-63
2022/06/29 05:15:45;;;;;;;994.43;902.10;;;20.50;99.90;;;;;;5025075;28;20200;-62
2022/06/29 05:18:10;;;;;;;994.37;902.20;;;20.40;99.90;;;;;;5026316;28;20274;-63
2022/06/29 05:20:36;;;;;;;982.67;890.17;;;20.50;99.90;;;;;;5016516;28;20219;-63
2022/06/29 05:23:01;;;;;;;973.37;881.67;;;20.60;99.90;;;;;;5026290;28;20291;-63
2022/06/29 05:25:27;;;;;;;973.10;881.40;;;20.60;99.90;;;;;;5024974;28;20670;-63
2022/06/29 05:27:53;;;;;;;961.13;869.90;;;20.80;99.90;;;;;;5010706;28;20223;-63
2022/06/29 05:30:18;;;;;;;995.20;902.63;;;21.10;99.90;;;;;;5018819;28;20218;-63
2022/06/29 05:32:44;;;;;;;1003.83;911.10;;;20.90;99.90;;;;;;5018216;28;20278;-63
2022/06/29 05:35:09;;;;;;;990.03;897.57;;;20.80;99.90;;;;;;5020196;28;20198;-63
2022/06/29 05:37:36;;;;;;;972.77;880.70;;;20.80;99.90;;;;;;5013199;28;20630;-63
2022/06/29 05:40:02;;;;;;;972.70;880.43;;;20.80;99.90;;;;;;5024525;28;20598;-63
2022/06/29 05:42:28;;;;;;;982.37;889.97;;;21.20;99.90;;;;;;5013047;28;20188;-63
2022/06/29 05:44:53;;;;;;;1044.87;948.00;;;21.10;99.90;;;;;;5021937;28;20670;-63
2022/06/29 05:47:19;;;;;;;1027.47;933.60;;;21.10;99.90;;;;;;5014758;28;20627;-63
2022/06/29 05:49:44;;;;;;;1018.47;921.97;;;21.20;99.90;;;;;;5023463;28;20211;-63
2022/06/29 05:52:10;;;;;;;1024.33;930.47;;;21.30;99.90;;;;;;5009245;28;20217;-63
2022/06/29 05:54:36;;;;;;;1011.60;918.23;;;21.40;99.90;;;;;;5023671;28;20226;-63
2022/06/29 05:57:01;;;;;;;1020.20;926.63;;;21.60;99.90;;;;;;5017413;28;20237;-63
2022/06/29 05:59:27;;;;;;;1019.93;926.13;;;21.80;99.90;;;;;;5024751;28;20200;-63
2022/06/29 06:01:53;;;;;;;1000.40;906.93;;;21.90;99.90;;;;;;5019064;28;20203;-63
2022/06/29 06:04:18;;;;;;;998.13;905.33;;;21.80;99.90;;;;;;5025217;28;20190;-64
2022/06/29 06:06:44;;;;;;;1039.80;945.13;;;21.90;99.90;;;;;;5013057;28;20256;-64
2022/06/29 06:09:09;;;;;;;1007.60;914.27;;;22.00;99.90;;;;;;5026137;28;20283;-63
2022/06/29 06:11:35;;;;;;;1025.93;931.77;;;22.10;99.90;;;;;;5009943;28;20219;-63
2022/06/29 06:14:01;;;;;;;1008.73;915.33;;;22.00;99.90;;;;;;5025222;28;20191;-63
2022/06/29 06:16:26;;;;;;;1025.27;931.13;;;22.00;99.90;;;;;;5013538;28;20195;-64
2022/06/29 06:18:52;;;;;;;996.30;903.47;;;22.10;99.90;;;;;;5013705;28;20243;-63
2022/06/29 06:21:17;;;;;;;1010.27;916.93;;;22.10;99.90;;;;;;5010691;28;20208;-64
2022/06/29 06:23:43;;;;;;;1045.43;951.23;;;22.20;99.90;;;;;;5025088;28;20191;-64
2022/06/29 06:26:08;;;;;;;1054.10;959.63;;;22.40;99.90;;;;;;5015181;28;20964;-64
2022/06/29 06:28:34;;;;;;;1059.50;964.83;;;22.60;99.60;;;;;;5007823;28;20282;-63
2022/06/29 06:30:59;;;;;;;1035.63;941.37;;;22.70;99.10;;;;;;5022829;28;20694;-64
2022/06/29 06:33:25;;;;;;;1066.23;970.77;;;22.80;99.30;;;;;;5024800;28;20278;-65
2022/06/29 06:35:50;;;;;;;1061.93;966.93;;;22.80;99.10;;;;;;5014486;28;20291;-65
2022/06/29 06:38:16;;;;;;;1035.30;941.07;;;22.90;99.10;;;;;;5025141;28;20222;-64
2022/06/29 06:43:26;;;;;;;1050.90;956.23;;;22.80;97.20;;;;;;4996315;28;20198;-64
2022/06/29 06:45:51;;;;;;;1031.00;937.03;;;22.90;97.20;;;;;;5023518;28;20204;-62
2022/06/29 06:48:17;;;;;;;1020.63;927.17;;;22.90;98.00;;;;;;5025418;28;20214;-63
2022/06/29 06:50:43;;;;;;;1020.67;927.00;;;22.80;98.10;;;;;;5016311;28;20769;-64
2022/06/29 06:53:08;;;;;;;1032.13;937.57;;;22.80;97.80;;;;;;5017524;28;20180;-63
2022/06/29 06:55:34;;;;;;;1056.73;961.87;;;22.80;97.60;;;;;;5012660;28;20266;-63
2022/06/29 06:58:01;;;;;;;1033.63;939.60;;;22.90;97.60;;;;;;5025150;28;20194;-64
2022/06/29 07:00:27;;;;;;;1040.80;946.67;;;23.20;97.30;;;;;;5016447;28;20215;-63
2022/06/29 07:02:53;;;;;;;1083.00;987.60;;;23.50;96.70;;;;;;5017616;28;20238;-63
2022/06/29 07:05:19;;;;;;;1068.27;972.90;;;23.70;95.60;;;;;;5022999;28;20286;-63
2022/06/29 07:07:45;;;;;;;1065.67;970.43;;;24.00;94.60;;;;;;5012879;28;20228;-63
2022/06/29 07:10:10;;;;;;;1115.73;999.90;;;24.00;93.30;;;;;;5026778;28;20207;-64
2022/06/29 07:12:36;;;;;;;1067.37;972.20;;;24.10;93.20;;;;;;5018043;28;20184;-63
2022/06/29 07:15:02;;;;;;;1095.03;996.40;;;24.10;92.20;;;;;;5026830;28;20210;-63
2022/06/29 07:17:27;;;;;;;1050.50;955.57;;;24.10;92.90;;;;;;5021154;28;20540;-63
2022/06/29 07:19:52;;;;;;;1084.67;988.83;;;23.90;92.40;;;;;;5028527;28;20199;-63
2022/06/29 07:22:18;;;;;;;1056.00;961.27;;;23.90;92.00;;;;;;5027071;28;20672;-63
2022/06/29 07:24:43;;;;;;;1064.97;969.63;;;24.10;91.40;;;;;;5028551;28;20188;-63
2022/06/29 07:27:09;;;;;;;1057.47;962.60;;;24.30;90.40;;;;;;5020383;28;20373;-63
2022/06/29 07:29:35;;;;;;;1067.17;971.93;;;24.30;89.30;;;;;;5028537;28;20214;-63
2022/06/29 07:32:01;;;;;;;1060.10;965.00;;;24.20;87.20;;;;;;5014389;28;20215;-63
2022/06/29 07:34:27;;;;;;;1069.43;974.17;;;24.20;87.80;;;;;;5029010;28;20207;-63
2022/06/29 07:36:52;;;;;;;1075.33;979.93;;;24.30;87.00;;;;;;5012319;28;20674;-63
2022/06/29 07:39:18;;;;;;;1078.93;982.53;;;24.40;86.60;;;;;;5028838;28;20642;-63
2022/06/29 07:41:43;;;;;;;1089.97;993.70;;;24.50;85.10;;;;;;5016267;28;20203;-63
2022/06/29 07:44:09;;;;;;;1080.07;983.97;;;24.60;85.40;;;;;;5029113;28;20188;-63
2022/06/29 07:46:34;;;;;;;1097.57;998.70;;;24.80;83.30;;;;;;5015070;28;20208;-63
2022/06/29 07:49:00;;;;;;;1071.37;975.87;;;24.70;83.40;;;;;;5028887;28;20209;-63
2022/06/29 07:51:25;;;;;;;1072.50;977.20;;;24.90;83.80;;;;;;5015628;28;20211;-63
2022/06/29 07:53:51;;;;;;;1094.40;996.20;;;24.90;82.70;;;;;;5027700;28;20195;-63
2022/06/29 07:56:16;;;;;;;1100.17;998.80;;;25.10;82.30;;;;;;5016664;28;20247;-63
2022/06/29 07:58:42;;;;;;;1094.50;996.83;;;25.00;81.10;;;;;;5018039;28;20664;-65
2022/06/29 08:01:07;;;;;;;1100.03;999.63;;;25.10;80.40;;;;;;5008604;28;20312;-63
2022/06/29 08:03:33;;;;;;;1084.77;988.63;;;25.00;77.40;;;;;;5009678;28;20196;-65
2022/06/29 08:05:59;;;;;;;1073.00;977.90;;;25.10;76.80;;;;;;5010915;28;20204;-64
2022/06/29 08:08:25;;;;;;;1104.13;999.90;;;25.10;74.90;;;;;;5009878;28;20192;-63
2022/06/29 08:10:50;;;;;;;1079.20;983.83;;;25.30;75.40;;;;;;5008153;28;20266;-62
2022/06/29 08:13:17;;;;;;;1106.07;999.90;;;25.20;75.60;;;;;;5007836;28;20188;-63
2022/06/29 08:15:45;;;;;;;1102.13;999.90;;;25.30;77.60;;;;;;5006404;28;20204;-63
2022/06/29 08:18:12;;;;;;;1078.47;982.80;;;25.60;77.40;;;;;;5004974;28;20181;-62
2022/06/29 08:20:38;;;;;;;1094.60;997.13;;;25.70;73.70;;;;;;5008941;28;20231;-62
2022/06/29 08:23:04;;;;;;;1096.90;998.00;;;25.90;75.10;;;;;;5009851;28;20184;-63
2022/06/29 08:25:31;;;;;;;1126.43;999.90;;;26.00;74.50;;;;;;5009224;28;20982;-63
2022/06/29 08:27:57;;;;;;;1110.97;999.90;;;26.20;75.00;;;;;;5009882;28;20265;-63
2022/06/29 08:30:22;;;;;;;1130.23;999.90;;;26.10;71.60;;;;;;5006220;28;20680;-65
2022/06/29 08:32:48;;;;;;;1124.00;999.90;;;26.20;70.80;;;;;;5013952;28;20713;-63
2022/06/29 08:35:15;;;;;;;1126.83;999.90;;;26.20;67.50;;;;;;5007324;28;20216;-63
2022/06/29 08:37:41;;;;;;;1107.80;999.90;;;25.60;67.10;;;;;;5008843;28;20639;-63
2022/06/29 08:40:09;;;;;;;1104.67;999.90;;;25.50;66.30;;;;;;5009814;28;20188;-63
2022/06/29 08:42:36;;;;;;;1099.13;999.10;;;25.30;66.50;;;;;;5009079;28;20196;-64
2022/06/29 08:45:01;;;;;;;1095.00;996.93;;;25.30;66.60;;;;;;5009381;28;20230;-66
2022/06/29 08:47:27;;;;;;;1111.23;999.90;;;25.60;66.60;;;;;;5024205;28;20254;-67
2022/06/29 08:49:52;;;;;;;1130.47;999.90;;;25.70;66.60;;;;;;5026562;28;20253;-63
2022/06/29 08:52:18;;;;;;;1122.07;999.90;;;26.00;67.10;;;;;;5025597;28;20209;-63
2022/06/29 08:54:48;;;;;;;1137.83;999.90;;;26.50;66.10;;;;;;5022861;28;20338;-68
2022/06/29 08:57:15;;;;;;;1119.13;999.90;;;26.60;64.00;;;;;;5007642;28;20284;-69
2022/06/29 08:59:40;;;;;;;1145.20;999.90;;;26.70;65.20;;;;;;5009851;28;20672;-69
2022/06/29 09:02:06;;;;;;;1131.93;999.90;;;26.90;62.40;;;;;;5008350;28;20211;-67
2022/06/29 09:04:32;;;;;;;1147.13;999.90;;;27.10;59.90;;;;;;5008934;28;20562;-66
2022/06/29 09:06:58;;;;;;;1142.37;999.90;;;27.00;58.50;;;;;;5006985;28;20213;-67
2022/06/29 09:09:24;;;;;;;1135.20;999.90;;;26.90;60.00;;;;;;5013078;28;20219;-65
2022/06/29 09:11:51;;;;;;;1158.70;999.90;;;27.00;62.00;;;;;;5006048;28;20231;-66
2022/06/29 09:14:21;;;;;;;1148.00;999.90;;;27.20;60.10;;;;;;5010766;28;20187;-69
2022/06/29 09:16:59;;;;;;;1143.73;999.90;;;27.60;59.20;;;;;;5008205;28;20196;-69
2022/06/29 09:19:28;;;;;;;1151.60;999.90;;;27.40;55.20;;;;;;5012173;28;20193;-66
2022/06/29 09:21:57;;;;;;;1140.63;999.90;;;27.00;57.40;;;;;;5012547;28;20628;-66
2022/06/29 09:24:33;;;;;;;1153.40;999.90;;;27.10;58.30;;;;;;5026800;28;20305;-67
2022/06/29 09:27:00;;;;;;;1162.53;999.90;;;27.00;58.10;;;;;;4998701;28;20306;-67
2022/06/29 09:29:31;;;;;;;1152.13;999.90;;;26.90;56.30;;;;;;5017034;28;20254;-65
2022/06/29 09:32:06;;;;;;;1165.07;999.90;;;26.80;56.40;;;;;;5009777;28;20208;-71
2022/06/29 09:34:37;;;;;;;1158.17;999.90;;;27.00;55.70;;;;;;5000732;28;20202;-65
2022/06/29 09:37:04;;;;;;;1143.83;999.90;;;27.30;57.00;;;;;;5003584;28;20241;-67
2022/06/29 09:39:34;;;;;;;1134.63;999.90;;;27.20;56.10;;;;;;5027756;28;20190;-65
2022/06/29 09:42:01;;;;;;;1146.20;999.90;;;27.20;55.90;;;;;;5011769;28;20680;-66
2022/06/29 09:44:27;;;;;;;1138.37;999.90;;;27.40;55.80;;;;;;5014532;28;20199;-65
2022/06/29 09:46:55;;;;;;;1146.60;999.90;;;27.60;56.00;;;;;;5006762;28;20915;-67
2022/06/29 09:49:25;;;;;;;1151.93;999.90;;;27.10;55.60;;;;;;5007577;28;20584;-67
2022/06/29 09:51:55;;;;;;;1129.47;999.90;;;27.00;57.40;;;;;;5004913;28;20222;-67
2022/06/29 09:54:22;;;;;;;1152.93;999.90;;;27.40;57.20;;;;;;5007631;28;20659;-66
2022/06/29 09:56:50;;;;;;;1166.40;999.90;;;27.50;57.00;;;;;;5004972;28;20236;-65
2022/06/29 10:02:34;;;;;;;1155.63;999.90;;;27.80;55.60;;;;;;5007999;28;20192;-66
2022/06/29 10:05:04;;;;;;;1151.53;999.90;;;28.00;54.40;;;;;;5005339;28;20212;-65
2022/06/29 10:07:30;;;;;;;1166.43;999.90;;;27.80;55.10;;;;;;5008857;28;20210;-66
2022/06/29 10:10:01;;;;;;;1150.07;999.90;;;27.50;55.50;;;;;;5025187;28;20669;-66
2022/06/29 10:15:46;;;;;;;1141.57;999.90;;;26.70;53.90;;;;;;5003202;28;20196;-66
2022/06/29 10:18:52;;;;;;;1139.77;999.90;;;26.70;52.30;;;;;;5006898;28;20641;-67
2022/06/29 10:21:27;;;;;;;1138.53;999.90;;;26.70;55.10;;;;;;4993435;28;20211;-67
2022/06/29 10:23:57;;;;;;;1137.77;999.90;;;26.60;54.60;;;;;;5010823;28;20217;-67
2022/06/29 10:26:39;;;;;;;1150.43;999.90;;;26.70;55.30;;;;;;5005505;28;20615;-68
2022/06/29 10:29:07;;;;;;;1135.57;999.90;;;27.20;56.30;;;;;;5010295;28;20300;-67
2022/06/29 10:32:04;;;;;;;1154.30;999.90;;;27.10;57.00;;;;;;5023538;28;20228;-67
2022/06/29 10:34:30;;;;;;;1139.03;999.90;;;27.20;57.00;;;;;;4985968;28;20202;-67
2022/06/29 10:37:12;;;;;;;1149.03;999.90;;;27.20;54.80;;;;;;5012600;28;20193;-65
2022/06/29 10:39:43;;;;;;;1157.43;999.90;;;27.30;56.20;;;;;;4998835;28;20195;-65
2022/06/29 10:45:08;;;;;;;1133.10;999.90;;;26.90;56.60;;;;;;5021138;28;20627;-66
2022/06/29 10:47:33;;;;;;;1141.50;999.90;;;27.30;56.90;;;;;;5008076;28;20630;-66
2022/06/29 10:50:19;;;;;;;1152.83;999.90;;;27.50;55.80;;;;;;5024894;28;20234;-67
2022/06/29 10:52:45;;;;;;;1142.33;999.90;;;28.00;56.10;;;;;;5014410;28;20603;-66
2022/06/29 10:55:11;;;;;;;1161.50;999.90;;;28.20;55.40;;;;;;5024768;28;20281;-67
2022/06/29 10:57:39;;;;;;;1186.00;999.90;;;28.40;54.20;;;;;;5016819;28;20203;-66
2022/06/29 11:00:10;;;;;;;1171.37;999.90;;;28.50;52.40;;;;;;5018975;28;20286;-67
2022/06/29 11:02:36;;;;;;;1144.43;999.90;;;28.20;53.00;;;;;;5009672;28;20231;-67
2022/06/29 11:05:03;;;;;;;1167.40;999.90;;;28.00;52.60;;;;;;5014232;28;20253;-66
2022/06/29 11:12:57;;;;;;;1165.37;999.90;;;26.90;53.30;;;;;;5010304;28;20227;-67
2022/06/29 11:15:40;;;;;;;1166.30;999.90;;;26.70;54.00;;;;;;5024325;28;20201;-66
2022/06/29 11:18:39;;;;;;;1158.60;999.90;;;26.60;54.70;;;;;;5004364;28;20199;-67
2022/06/29 11:21:05;;;;;;;1186.60;999.90;;;26.90;55.10;;;;;;4986728;28;20194;-68
2022/06/29 11:23:35;;;;;;;1135.27;999.90;;;27.00;55.30;;;;;;5005788;28;20178;-67
2022/06/29 11:26:02;;;;;;;1178.70;999.90;;;27.40;56.30;;;;;;5021418;28;20191;-68
2022/06/29 11:28:30;;;;;;;1138.90;999.90;;;27.50;52.50;;;;;;5018837;28;20191;-67
2022/06/29 11:31:01;;;;;;;1156.00;999.90;;;27.40;53.10;;;;;;5021827;28;20210;-66
2022/06/29 11:33:57;;;;;;;1157.97;999.90;;;27.60;53.60;;;;;;5017238;28;20224;-66
2022/06/29 11:36:26;;;;;;;1143.30;999.90;;;27.80;53.80;;;;;;4997826;28;20213;-66
2022/06/29 11:38:55;;;;;;;1148.07;999.90;;;28.10;53.40;;;;;;5004515;28;20169;-66
2022/06/29 11:41:24;;;;;;;1150.60;999.90;;;28.10;53.20;;;;;;5007890;28;20214;-66
2022/06/29 11:44:04;;;;;;;1157.67;999.90;;;28.30;53.10;;;;;;5025190;28;20201;-66
2022/06/29 11:46:37;;;;;;;1164.70;999.90;;;28.40;53.80;;;;;;5016880;28;20282;-66
2022/06/29 11:51:57;;;;;;;1190.20;999.90;;;30.70;52.40;;;;;;5015671;28;20238;-66
2022/06/29 11:54:37;;;;;;;1209.17;999.90;;;31.40;50.40;;;;;;5010159;28;20322;-67
2022/06/29 11:57:08;;;;;;;1208.43;999.90;;;31.70;49.30;;;;;;5006350;28;20215;-66
2022/06/29 11:59:34;;;;;;;1200.23;999.90;;;31.20;49.60;;;;;;5010636;28;20671;-67
2022/06/29 12:02:01;;;;;;;1204.73;999.90;;;30.70;51.60;;;;;;5006221;28;20280;-65
2022/06/29 12:04:31;;;;;;;1188.77;999.90;;;30.50;52.10;;;;;;5010643;28;20208;-67
2022/06/29 12:07:12;;;;;;;1202.33;999.90;;;30.40;51.10;;;;;;5006356;28;20196;-68
2022/06/29 12:09:40;;;;;;;1200.90;999.90;;;30.10;49.80;;;;;;5007566;28;20218;-68
2022/06/29 12:12:07;;;;;;;1183.67;999.90;;;30.30;49.30;;;;;;5012922;28;20661;-67
2022/06/29 12:14:33;;;;;;;1212.67;999.90;;;30.30;50.60;;;;;;5008809;28;20204;-68
2022/06/29 12:16:59;;;;;;;1213.43;999.90;;;31.70;48.10;;;;;;5008030;28;20576;-67
2022/06/29 12:19:24;;;;;;;1210.30;999.90;;;31.80;47.30;;;;;;5010850;28;20200;-67
2022/06/29 12:21:50;;;;;;;1197.53;999.90;;;31.00;48.80;;;;;;5007081;28;20196;-69
2022/06/29 12:24:17;;;;;;;1205.70;999.90;;;30.90;50.00;;;;;;5010171;28;20177;-68
2022/06/29 12:26:43;;;;;;;1193.93;999.90;;;30.60;48.70;;;;;;5010801;28;20460;-69